HLE76 EGPH-EGPH

Flight info

Callsign HLE76
Flight time 0h 15m
Altitude 2000
Route HELIMED OPS
Aircraft EC45/L-SDFGRY/C

Departure

Time 2026-04-21 21:45
Airport Edinburgh Airport (EGPH)

Arrival

Time 2026-04-21 22:01
Airport Edinburgh Airport (EGPH)
Time Latitude Longitude Altitude Speed Heading
2026-04-21 21:40 56.02813 -3.72352 21 ft 0 kts 178°
2026-04-21 21:44 56.02798 -3.72329 45 ft 4 kts 227°
2026-04-21 21:44 56.02782 -3.72296 218 ft 2 kts 51°
2026-04-21 21:45 56.02905 -3.72199 388 ft 38 kts 47°
2026-04-21 21:45 56.03206 -3.71828 641 ft 64 kts 42°
2026-04-21 21:45 56.03680 -3.71457 793 ft 85 kts 23°
2026-04-21 21:45 56.04327 -3.71388 876 ft 102 kts
2026-04-21 21:46 56.05053 -3.71775 914 ft 111 kts 352°
2026-04-21 21:46 56.05716 -3.71474 1057 ft 98 kts 39°
2026-04-21 21:46 56.05972 -3.70429 1261 ft 91 kts 83°
2026-04-21 21:46 56.05808 -3.69374 1525 ft 89 kts 110°
2026-04-21 21:47 56.05386 -3.68573 1729 ft 92 kts 128°
2026-04-21 21:47 56.04800 -3.67965 1778 ft 102 kts 141°
2026-04-21 21:47 56.04183 -3.67352 1818 ft 100 kts 131°
2026-04-21 21:47 56.03665 -3.66570 1902 ft 95 kts 122°
2026-04-21 21:48 56.03322 -3.65628 1984 ft 88 kts 102°
2026-04-21 21:48 56.03329 -3.64592 2045 ft 85 kts 68°
2026-04-21 21:48 56.03760 -3.63862 2089 ft 92 kts 32°
2026-04-21 21:48 56.04437 -3.63853 2122 ft 107 kts 355°
2026-04-21 21:49 56.05143 -3.64034 2056 ft 99 kts 22°
2026-04-21 21:49 56.05362 -3.63019 1744 ft 106 kts 101°
2026-04-21 21:49 56.04849 -3.62001 1600 ft 108 kts 124°
2026-04-21 21:49 56.04358 -3.61166 1621 ft 93 kts 121°
2026-04-21 21:50 56.03905 -3.60330 1445 ft 95 kts 118°
2026-04-21 21:50 56.03449 -3.59342 1257 ft 109 kts 118°
2026-04-21 21:50 56.02977 -3.58217 1174 ft 117 kts 117°
2026-04-21 21:50 56.02500 -3.57020 1118 ft 120 kts 116°
2026-04-21 21:51 56.02020 -3.55769 1085 ft 121 kts 115°
2026-04-21 21:51 56.01528 -3.54599 1211 ft 116 kts 120°
2026-04-21 21:51 56.01006 -3.53451 1182 ft 121 kts 117°
2026-04-21 21:51 56.00543 -3.52215 1228 ft 119 kts 114°
2026-04-21 21:52 56.00115 -3.50952 1258 ft 120 kts 112°
2026-04-21 21:52 55.99688 -3.49678 1325 ft 118 kts 111°
2026-04-21 21:52 55.99362 -3.48341 1311 ft 120 kts 102°
2026-04-21 21:52 55.99095 -3.46947 1332 ft 117 kts 102°
2026-04-21 21:53 55.98802 -3.45606 1370 ft 116 kts 104°
2026-04-21 21:53 55.98499 -3.44266 1446 ft 108 kts 99°
2026-04-21 21:53 55.98261 -3.42953 1351 ft 118 kts 100°
2026-04-21 21:53 55.97804 -3.41658 1234 ft 132 kts 126°
2026-04-21 21:54 55.96997 -3.40912 1283 ft 135 kts 158°
2026-04-21 21:54 55.96027 -3.40945 1241 ft 142 kts 174°
2026-04-21 21:54 55.95054 -3.40935 1204 ft 140 kts 167°
2026-04-21 21:54 55.94125 -3.40695 1244 ft 133 kts 155°
2026-04-21 21:55 55.93288 -3.40034 1268 ft 129 kts 144°
2026-04-21 21:55 55.92528 -3.39288 1382 ft 121 kts 139°
2026-04-21 21:55 55.91887 -3.38382 1481 ft 116 kts 123°
2026-04-21 21:55 55.91452 -3.37163 1443 ft 120 kts 107°
2026-04-21 21:56 55.91183 -3.35737 1380 ft 122 kts 97°
2026-04-21 21:56 55.91005 -3.34241 1346 ft 122 kts 94°
2026-04-21 21:56 55.90863 -3.32810 1444 ft 111 kts 90°
2026-04-21 21:56 55.90907 -3.31505 1420 ft 104 kts 77°
2026-04-21 21:57 55.91018 -3.30326 1438 ft 97 kts 76°
2026-04-21 21:57 55.91119 -3.29168 1435 ft 93 kts 75°
2026-04-21 21:57 55.91197 -3.28019 1419 ft 92 kts 79°
2026-04-21 21:57 55.91261 -3.26914 1465 ft 88 kts 78°
2026-04-21 21:58 55.91325 -3.25849 1513 ft 86 kts 81°
2026-04-21 21:58 55.91393 -3.24756 1421 ft 92 kts 76°
2026-04-21 21:58 55.91524 -3.23604 1297 ft 96 kts 74°
2026-04-21 21:58 55.91643 -3.22495 1339 ft 88 kts 75°
2026-04-21 21:59 55.91752 -3.21404 1295 ft 90 kts 76°
2026-04-21 21:59 55.91828 -3.20263 1249 ft 94 kts 79°
2026-04-21 21:59 55.91898 -3.19168 1332 ft 88 kts 77°
2026-04-21 21:59 55.91952 -3.18077 1257 ft 91 kts 82°
2026-04-21 22:00 55.91925 -3.16935 1170 ft 94 kts 84°
2026-04-21 22:00 55.91970 -3.15756 1054 ft 97 kts 76°
2026-04-21 22:00 55.92096 -3.14552 878 ft 99 kts 70°
2026-04-21 22:00 55.92169 -3.13529 708 ft 70 kts 110°
2026-04-21 22:01 55.91737 -3.13618 799 ft 61 kts 205°
2026-04-21 22:01 55.91603 -3.14005 778 ft 27 kts 313°
2026-04-21 22:01 55.91771 -3.14008 683 ft 29 kts 25°
2026-04-21 22:01 55.91936 -3.13901 488 ft 18 kts 32°
2026-04-21 22:02 55.91997 -3.13872 452 ft 11 kts 44°
2026-04-21 22:02 55.92041 -3.13826 385 ft 2 kts 59°
2026-04-21 22:02 55.92077 -3.13771 354 ft 4 kts 57°
2026-04-21 22:02 55.92087 -3.13730 289 ft 10 kts 71°
2026-04-21 22:03 55.92094 -3.13709 282 ft 0 kts 66°